createdAt,value
2023-01-01T00:00:43.896Z,15.20
2023-01-01T00:05:45.589Z,15.10
2023-01-01T00:10:47.470Z,14.90
2023-01-01T00:15:49.184Z,14.90
2023-01-01T00:20:50.892Z,14.80
2023-01-01T00:25:52.563Z,14.70
2023-01-01T00:30:55.077Z,14.60
2023-01-01T00:35:56.840Z,14.50
2023-01-01T00:40:58.515Z,14.40
2023-01-01T00:46:00.243Z,14.40
2023-01-01T00:51:02.458Z,14.50
2023-01-01T00:56:04.752Z,14.30
2023-01-01T01:01:06.602Z,14.40
2023-01-01T01:06:10.263Z,14.40
2023-01-01T01:11:23.555Z,14.30
2023-01-01T01:16:32.310Z,14.30
2023-01-01T01:21:34.619Z,14.30
2023-01-01T01:26:36.888Z,14.20
2023-01-01T01:31:38.610Z,14.20
2023-01-01T01:36:40.333Z,14.40
2023-01-01T01:41:41.988Z,14.70
2023-01-01T01:46:45.827Z,14.60
2023-01-01T01:51:48.328Z,15.00
2023-01-01T01:56:55.369Z,14.90
2023-01-01T02:01:57.614Z,15.10
2023-01-01T02:06:59.954Z,15.00
2023-01-01T02:12:01.626Z,15.10
2023-01-01T02:17:12.144Z,15.10
2023-01-01T02:22:32.986Z,15.10
2023-01-01T02:27:48.645Z,15.10
2023-01-01T02:32:56.213Z,15.00
2023-01-01T02:38:09.945Z,15.00
2023-01-01T02:43:11.729Z,15.00
2023-01-01T02:48:35.452Z,14.90
2023-01-01T02:53:48.654Z,14.80
2023-01-01T02:59:39.187Z,14.80
2023-01-01T03:05:00.151Z,14.80
2023-01-01T03:10:01.937Z,14.80
2023-01-01T03:15:10.807Z,14.70
2023-01-01T03:20:19.112Z,14.70
2023-01-01T03:25:32.426Z,14.70
2023-01-01T03:30:37.614Z,14.70
2023-01-01T03:35:54.016Z,14.70
2023-01-01T03:41:02.093Z,14.70
2023-01-01T03:46:04.924Z,14.70
2023-01-01T03:51:19.041Z,14.70
2023-01-01T03:56:35.796Z,14.70
2023-01-01T04:01:46.819Z,14.80
2023-01-01T04:06:48.870Z,14.80
2023-01-01T04:12:04.060Z,14.80
2023-01-01T04:17:07.957Z,14.90
2023-01-01T04:22:10.132Z,14.80
2023-01-01T04:27:11.871Z,14.70
2023-01-01T04:32:13.673Z,14.80
2023-01-01T04:37:15.667Z,14.80
2023-01-01T04:42:17.441Z,14.80
2023-01-01T04:47:19.204Z,14.80
2023-01-01T04:52:21.484Z,14.80
2023-01-01T04:57:23.228Z,14.80
2023-01-01T05:02:25.717Z,14.70
2023-01-01T05:07:27.483Z,14.70
2023-01-01T05:12:30.130Z,14.70
2023-01-01T05:17:31.729Z,14.70
2023-01-01T05:22:33.424Z,14.70
2023-01-01T05:27:35.152Z,14.70
2023-01-01T05:32:37.906Z,14.70
2023-01-01T05:37:39.594Z,14.70
2023-01-01T05:42:41.220Z,14.60
2023-01-01T05:47:42.981Z,14.60
2023-01-01T05:52:44.676Z,14.60
2023-01-01T05:57:46.325Z,14.40
2023-01-01T06:02:49.876Z,14.40
2023-01-01T06:07:51.707Z,14.30
2023-01-01T06:12:58.666Z,14.30
2023-01-01T06:18:00.400Z,14.30
2023-01-01T06:23:02.164Z,14.40
2023-01-01T06:28:04.091Z,14.40
2023-01-01T06:33:05.929Z,14.40
2023-01-01T06:38:07.765Z,14.50
2023-01-01T06:43:09.441Z,14.50
2023-01-01T06:48:11.200Z,14.50
2023-01-01T06:53:12.943Z,14.50
2023-01-01T06:58:14.718Z,14.50
2023-01-01T07:03:16.404Z,14.40
2023-01-01T07:08:18.063Z,14.50
2023-01-01T07:13:19.783Z,14.50
2023-01-01T07:18:23.160Z,14.40
2023-01-01T07:23:26.509Z,14.40
2023-01-01T07:28:28.318Z,14.40
2023-01-01T07:33:30.021Z,14.40
2023-01-01T07:38:31.801Z,14.50
2023-01-01T07:43:33.688Z,14.50
2023-01-01T07:48:40.068Z,14.50
2023-01-01T07:53:42.160Z,14.50
2023-01-01T07:58:44.252Z,14.60
2023-01-01T08:03:50.906Z,14.60
2023-01-01T08:08:52.709Z,14.60
2023-01-01T08:13:54.804Z,14.60
2023-01-01T08:18:56.593Z,14.60
2023-01-01T08:23:58.325Z,14.60
2023-01-01T08:29:03.072Z,14.60
2023-01-01T08:34:04.825Z,14.60
2023-01-01T08:39:07.381Z,14.60
2023-01-01T08:44:09.064Z,14.60
2023-01-01T08:49:10.898Z,14.60
2023-01-01T08:54:12.601Z,14.60
2023-01-01T08:59:14.279Z,14.60
2023-01-01T09:04:17.207Z,14.60
2023-01-01T09:09:19.891Z,14.60
2023-01-01T09:14:21.954Z,14.60
2023-01-01T09:19:23.664Z,14.70
2023-01-01T09:24:25.523Z,14.60
2023-01-01T09:29:27.359Z,14.60
2023-01-01T09:34:29.133Z,14.70
2023-01-01T09:39:30.878Z,14.60
2023-01-01T09:45:04.275Z,14.60
2023-01-01T09:50:13.387Z,14.60
2023-01-01T09:55:46.998Z,14.60
2023-01-01T10:00:52.642Z,14.60
2023-01-01T10:06:12.710Z,14.60
2023-01-01T10:11:45.565Z,14.60
2023-01-01T10:16:52.227Z,14.60
2023-01-01T10:21:58.067Z,14.60
2023-01-01T10:27:04.039Z,14.60
2023-01-01T10:32:20.218Z,14.60
2023-01-01T10:37:22.549Z,14.60
2023-01-01T10:42:26.308Z,14.60
2023-01-01T10:47:29.903Z,14.70
2023-01-01T10:52:40.630Z,14.60
2023-01-01T10:57:42.993Z,14.70
2023-01-01T11:02:44.833Z,14.70
2023-01-01T11:07:47.772Z,14.70
2023-01-01T11:13:07.004Z,14.70
2023-01-01T11:18:14.957Z,14.70
2023-01-01T11:23:27.909Z,14.70
2023-01-01T11:28:31.685Z,14.60
2023-01-01T11:33:54.403Z,14.60
2023-01-01T11:39:22.322Z,14.60
2023-01-01T11:44:42.177Z,14.60
2023-01-01T11:49:43.988Z,14.60
2023-01-01T11:54:47.629Z,14.60
2023-01-01T11:59:57.368Z,14.60
2023-01-01T12:05:27.055Z,14.70
2023-01-01T12:10:35.111Z,14.60
2023-01-01T12:16:08.900Z,14.60
2023-01-01T12:21:24.165Z,14.60
2023-01-01T12:26:38.465Z,14.60
2023-01-01T12:32:09.394Z,14.60
2023-01-01T12:37:36.206Z,14.70
2023-01-01T12:43:04.202Z,14.60
2023-01-01T12:48:42.889Z,14.60
2023-01-01T12:53:59.940Z,14.60
2023-01-01T12:59:10.600Z,14.60
2023-01-01T13:04:17.340Z,14.60
2023-01-01T13:09:25.114Z,14.60
2023-01-01T13:14:27.191Z,14.60
2023-01-01T13:19:38.005Z,14.60
2023-01-01T13:24:39.750Z,14.70
2023-01-01T13:29:44.937Z,14.70
2023-01-01T13:35:02.982Z,14.70
2023-01-01T13:40:29.273Z,14.70
2023-01-01T13:46:10.976Z,14.70
2023-01-01T13:52:04.619Z,14.80
2023-01-01T13:57:14.601Z,14.80
2023-01-01T14:02:23.551Z,14.70
2023-01-01T14:07:52.290Z,14.80
2023-01-01T14:13:14.159Z,14.80
2023-01-01T14:18:18.116Z,14.70
2023-01-01T14:23:36.624Z,14.80
2023-01-01T14:28:39.504Z,14.80
2023-01-01T14:33:41.519Z,14.70
2023-01-01T14:38:45.291Z,14.70
2023-01-01T14:43:49.585Z,14.60
2023-01-01T14:48:55.154Z,14.60
2023-01-01T14:54:02.083Z,14.50
2023-01-01T14:59:30.640Z,14.50
2023-01-01T15:04:32.354Z,14.50
2023-01-01T15:09:34.213Z,14.30
2023-01-01T15:14:35.847Z,14.30
2023-01-01T15:19:41.240Z,14.20
2023-01-01T15:24:45.982Z,14.30
2023-01-01T15:29:48.769Z,14.20
2023-01-01T15:34:52.599Z,14.20
2023-01-01T15:39:58.003Z,14.20
2023-01-01T15:45:30.310Z,14.10
2023-01-01T15:50:43.922Z,14.10
2023-01-01T15:55:59.689Z,14.10
2023-01-01T16:01:07.281Z,14.00
2023-01-01T16:06:19.312Z,13.90
2023-01-01T16:11:21.021Z,13.90
2023-01-01T16:16:30.314Z,13.90
2023-01-01T16:21:32.964Z,13.80
2023-01-01T16:26:34.581Z,13.80
2023-01-01T16:31:37.167Z,13.80
2023-01-01T16:36:38.835Z,13.70
2023-01-01T16:41:42.461Z,13.70
2023-01-01T16:46:44.469Z,13.70
2023-01-01T16:51:46.169Z,13.60
2023-01-01T16:56:47.813Z,13.60
2023-01-01T17:01:49.687Z,13.60
2023-01-01T17:06:51.398Z,13.60
2023-01-01T17:11:53.009Z,13.60
2023-01-01T17:16:56.333Z,13.60
2023-01-01T17:21:58.105Z,13.60
2023-01-01T17:26:59.767Z,13.60
2023-01-01T17:32:01.407Z,13.60
2023-01-01T17:37:03.056Z,13.60
2023-01-01T17:42:04.777Z,13.60
2023-01-01T17:47:06.423Z,13.60
2023-01-01T17:52:08.177Z,13.60
2023-01-01T17:57:09.858Z,13.50
2023-01-01T18:02:13.235Z,13.30
2023-01-01T18:07:14.973Z,13.20
2023-01-01T18:12:16.659Z,13.10
2023-01-01T18:17:18.421Z,13.10
2023-01-01T18:22:20.175Z,13.00
2023-01-01T18:27:21.857Z,12.90
2023-01-01T18:32:23.528Z,12.90
2023-01-01T18:37:25.171Z,12.80
2023-01-01T18:42:39.138Z,12.70
2023-01-01T18:47:40.769Z,12.70
2023-01-01T18:52:42.655Z,12.70
2023-01-01T18:57:49.266Z,12.60
2023-01-01T19:03:01.507Z,12.60
2023-01-01T19:08:09.468Z,12.50
2023-01-01T19:13:31.915Z,12.50
2023-01-01T19:18:34.536Z,12.50
2023-01-01T19:23:38.913Z,12.50
2023-01-01T19:28:46.639Z,12.50
2023-01-01T19:33:48.447Z,12.50
2023-01-01T19:38:50.158Z,12.50
2023-01-01T19:43:51.991Z,12.50
2023-01-01T19:48:53.828Z,12.50
2023-01-01T19:53:55.791Z,12.50
2023-01-01T19:58:57.436Z,12.60
2023-01-01T20:03:59.446Z,12.60
2023-01-01T20:09:01.402Z,12.60
2023-01-01T20:14:03.734Z,12.60
2023-01-01T20:19:05.441Z,12.60
2023-01-01T20:24:07.122Z,12.70
2023-01-01T20:29:20.675Z,12.70
2023-01-01T20:34:23.037Z,12.70
2023-01-01T20:39:25.576Z,12.80
2023-01-01T20:44:27.630Z,12.80
2023-01-01T20:49:29.304Z,12.80
2023-01-01T20:54:31.075Z,12.90
2023-01-01T20:59:37.773Z,12.90
2023-01-01T21:04:40.625Z,12.90
2023-01-01T21:09:42.660Z,13.00
2023-01-01T21:14:44.423Z,13.20
2023-01-01T21:19:46.141Z,13.20
2023-01-01T21:24:53.711Z,13.20
2023-01-01T21:29:57.692Z,13.30
2023-01-01T21:35:00.437Z,13.40
2023-01-01T21:40:21.588Z,13.40
2023-01-01T21:45:31.785Z,13.40
2023-01-01T21:50:33.673Z,13.50
2023-01-01T21:55:54.821Z,13.50
2023-01-01T22:00:56.504Z,13.50
2023-01-01T22:05:59.552Z,13.60
2023-01-01T22:11:01.670Z,13.70
2023-01-01T22:16:03.400Z,13.80
2023-01-01T22:21:05.219Z,13.80
2023-01-01T22:26:27.603Z,13.80
2023-01-01T22:31:33.161Z,13.90
2023-01-01T22:36:36.333Z,13.90
2023-01-01T22:41:38.057Z,13.90
2023-01-01T22:46:41.305Z,14.00
2023-01-01T22:51:44.556Z,13.90
2023-01-01T22:56:46.313Z,14.00
2023-01-01T23:01:48.034Z,14.00
2023-01-01T23:06:49.808Z,14.10
2023-01-01T23:11:54.411Z,14.20
2023-01-01T23:16:56.220Z,14.20
2023-01-01T23:22:00.169Z,14.20
2023-01-01T23:27:03.350Z,14.30
2023-01-01T23:32:05.334Z,14.30
2023-01-01T23:37:07.237Z,14.30
2023-01-01T23:42:08.925Z,14.30
2023-01-01T23:47:10.945Z,14.40
2023-01-01T23:52:12.780Z,14.40
2023-01-01T23:57:14.653Z,14.50
